sensor_id;sensor_type;location;lat;lon;timestamp;pressure;altitude;pressure_sealevel;temperature
40199;BMP280;25906;43.536;26.068;2023-03-07T00:01:40;97856.34;;;12.60
40199;BMP280;25906;43.536;26.068;2023-03-07T00:04:25;97859.69;;;12.72
40199;BMP280;25906;43.536;26.068;2023-03-07T00:07:12;97858.09;;;12.94
40199;BMP280;25906;43.536;26.068;2023-03-07T00:09:57;97855.78;;;12.88
40199;BMP280;25906;43.536;26.068;2023-03-07T00:12:42;97868.84;;;13.05
40199;BMP280;25906;43.536;26.068;2023-03-07T00:15:28;97857.56;;;12.71
40199;BMP280;25906;43.536;26.068;2023-03-07T00:18:14;97852.66;;;12.94
40199;BMP280;25906;43.536;26.068;2023-03-07T00:21:03;97851.69;;;13.01
40199;BMP280;25906;43.536;26.068;2023-03-07T00:23:51;97846.63;;;13.09
40199;BMP280;25906;43.536;26.068;2023-03-07T00:26:37;97842.59;;;13.36
40199;BMP280;25906;43.536;26.068;2023-03-07T00:29:23;97844.44;;;13.61
40199;BMP280;25906;43.536;26.068;2023-03-07T00:32:09;97833.16;;;13.53
40199;BMP280;25906;43.536;26.068;2023-03-07T00:34:55;97826.78;;;13.20
40199;BMP280;25906;43.536;26.068;2023-03-07T00:37:41;97825.75;;;13.40
40199;BMP280;25906;43.536;26.068;2023-03-07T00:40:26;97818.13;;;13.23
40199;BMP280;25906;43.536;26.068;2023-03-07T00:43:12;97820.22;;;13.38
40199;BMP280;25906;43.536;26.068;2023-03-07T00:45:58;97821.94;;;13.45
40199;BMP280;25906;43.536;26.068;2023-03-07T00:48:43;97812.38;;;13.30
40199;BMP280;25906;43.536;26.068;2023-03-07T00:51:29;97814.28;;;13.28
40199;BMP280;25906;43.536;26.068;2023-03-07T00:54:15;97818.69;;;13.35
40199;BMP280;25906;43.536;26.068;2023-03-07T00:57:00;97811.41;;;13.11
40199;BMP280;25906;43.536;26.068;2023-03-07T00:59:45;97811.50;;;12.59
40199;BMP280;25906;43.536;26.068;2023-03-07T01:02:31;97808.28;;;13.16
40199;BMP280;25906;43.536;26.068;2023-03-07T01:05:16;97802.94;;;12.51
40199;BMP280;25906;43.536;26.068;2023-03-07T01:08:01;97800.50;;;12.31
40199;BMP280;25906;43.536;26.068;2023-03-07T01:10:47;97793.19;;;13.00
40199;BMP280;25906;43.536;26.068;2023-03-07T01:13:33;97792.00;;;12.63
40199;BMP280;25906;43.536;26.068;2023-03-07T01:16:21;97791.50;;;12.80
40199;BMP280;25906;43.536;26.068;2023-03-07T01:19:08;97789.84;;;12.48
40199;BMP280;25906;43.536;26.068;2023-03-07T01:21:56;97783.94;;;12.51
40199;BMP280;25906;43.536;26.068;2023-03-07T01:24:41;97778.09;;;12.43
40199;BMP280;25906;43.536;26.068;2023-03-07T01:27:27;97780.13;;;12.83
40199;BMP280;25906;43.536;26.068;2023-03-07T01:30:12;97777.81;;;12.78
40199;BMP280;25906;43.536;26.068;2023-03-07T01:32:59;97770.53;;;12.29
40199;BMP280;25906;43.536;26.068;2023-03-07T01:35:45;97756.28;;;12.55
40199;BMP280;25906;43.536;26.068;2023-03-07T01:38:30;97753.25;;;12.22
40199;BMP280;25906;43.536;26.068;2023-03-07T01:41:18;97748.44;;;11.83
40199;BMP280;25906;43.536;26.068;2023-03-07T01:44:13;97750.56;;;12.49
40199;BMP280;25906;43.536;26.068;2023-03-07T01:46:59;97751.06;;;12.59
40199;BMP280;25906;43.536;26.068;2023-03-07T01:49:45;97747.75;;;12.60
40199;BMP280;25906;43.536;26.068;2023-03-07T01:52:33;97748.75;;;12.53
40199;BMP280;25906;43.536;26.068;2023-03-07T01:55:23;97741.34;;;12.67
40199;BMP280;25906;43.536;26.068;2023-03-07T01:58:11;97744.59;;;13.06
40199;BMP280;25906;43.536;26.068;2023-03-07T02:00:58;97750.97;;;12.57
40199;BMP280;25906;43.536;26.068;2023-03-07T02:06:47;97753.03;;;13.12
40199;BMP280;25906;43.536;26.068;2023-03-07T02:09:34;97752.31;;;13.11
40199;BMP280;25906;43.536;26.068;2023-03-07T02:12:19;97747.16;;;12.48
40199;BMP280;25906;43.536;26.068;2023-03-07T02:15:07;97744.13;;;12.96
40199;BMP280;25906;43.536;26.068;2023-03-07T02:17:53;97743.22;;;12.78
40199;BMP280;25906;43.536;26.068;2023-03-07T02:27:02;97729.63;;;12.65
40199;BMP280;25906;43.536;26.068;2023-03-07T02:29:49;97709.94;;;12.24
40199;BMP280;25906;43.536;26.068;2023-03-07T02:32:34;97725.22;;;12.44
40199;BMP280;25906;43.536;26.068;2023-03-07T02:35:22;97736.16;;;13.00
40199;BMP280;25906;43.536;26.068;2023-03-07T02:38:08;97740.38;;;13.45
40199;BMP280;25906;43.536;26.068;2023-03-07T02:40:54;97744.19;;;13.40
40199;BMP280;25906;43.536;26.068;2023-03-07T02:43:39;97753.28;;;13.60
40199;BMP280;25906;43.536;26.068;2023-03-07T02:46:25;97741.81;;;13.61
40199;BMP280;25906;43.536;26.068;2023-03-07T02:49:10;97751.78;;;13.28
40199;BMP280;25906;43.536;26.068;2023-03-07T02:51:55;97754.50;;;13.28
40199;BMP280;25906;43.536;26.068;2023-03-07T02:54:44;97750.38;;;13.14
40199;BMP280;25906;43.536;26.068;2023-03-07T02:57:30;97745.53;;;12.83
40199;BMP280;25906;43.536;26.068;2023-03-07T03:00:16;97746.84;;;12.96
40199;BMP280;25906;43.536;26.068;2023-03-07T03:03:01;97756.50;;;12.85
40199;BMP280;25906;43.536;26.068;2023-03-07T03:05:46;97747.34;;;12.79
40199;BMP280;25906;43.536;26.068;2023-03-07T03:08:32;97748.97;;;12.84
40199;BMP280;25906;43.536;26.068;2023-03-07T03:11:17;97747.25;;;12.50
40199;BMP280;25906;43.536;26.068;2023-03-07T03:14:02;97749.44;;;12.40
40199;BMP280;25906;43.536;26.068;2023-03-07T03:16:48;97752.56;;;12.48
40199;BMP280;25906;43.536;26.068;2023-03-07T03:19:35;97745.13;;;12.62
40199;BMP280;25906;43.536;26.068;2023-03-07T03:22:21;97750.78;;;12.53
40199;BMP280;25906;43.536;26.068;2023-03-07T03:25:08;97741.78;;;12.37
40199;BMP280;25906;43.536;26.068;2023-03-07T03:27:54;97750.16;;;12.54
40199;BMP280;25906;43.536;26.068;2023-03-07T03:30:40;97749.13;;;12.48
40199;BMP280;25906;43.536;26.068;2023-03-07T03:33:26;97746.22;;;12.71
40199;BMP280;25906;43.536;26.068;2023-03-07T03:36:14;97757.47;;;12.92
40199;BMP280;25906;43.536;26.068;2023-03-07T03:39:00;97756.81;;;12.51
40199;BMP280;25906;43.536;26.068;2023-03-07T03:41:46;97753.63;;;12.17
40199;BMP280;25906;43.536;26.068;2023-03-07T03:44:31;97751.16;;;11.71
40199;BMP280;25906;43.536;26.068;2023-03-07T03:47:17;97752.91;;;11.78
40199;BMP280;25906;43.536;26.068;2023-03-07T03:50:03;97750.09;;;11.76
40199;BMP280;25906;43.536;26.068;2023-03-07T03:52:48;97752.22;;;12.16
40199;BMP280;25906;43.536;26.068;2023-03-07T03:55:33;97758.28;;;12.28
40199;BMP280;25906;43.536;26.068;2023-03-07T03:58:19;97749.63;;;12.31
40199;BMP280;25906;43.536;26.068;2023-03-07T04:01:07;97755.25;;;12.22
40199;BMP280;25906;43.536;26.068;2023-03-07T04:03:53;97754.25;;;12.42
40199;BMP280;25906;43.536;26.068;2023-03-07T04:06:39;97744.34;;;12.46
40199;BMP280;25906;43.536;26.068;2023-03-07T04:09:24;97748.13;;;12.15
40199;BMP280;25906;43.536;26.068;2023-03-07T04:12:09;97747.78;;;12.09
40199;BMP280;25906;43.536;26.068;2023-03-07T04:14:55;97740.81;;;11.92
40199;BMP280;25906;43.536;26.068;2023-03-07T04:17:40;97743.28;;;11.75
40199;BMP280;25906;43.536;26.068;2023-03-07T04:20:26;97744.06;;;11.53
40199;BMP280;25906;43.536;26.068;2023-03-07T04:23:11;97753.09;;;11.69
40199;BMP280;25906;43.536;26.068;2023-03-07T04:25:58;97750.53;;;11.59
40199;BMP280;25906;43.536;26.068;2023-03-07T04:28:44;97754.25;;;11.41
40199;BMP280;25906;43.536;26.068;2023-03-07T04:31:29;97748.69;;;11.50
40199;BMP280;25906;43.536;26.068;2023-03-07T04:34:14;97751.16;;;11.83
40199;BMP280;25906;43.536;26.068;2023-03-07T04:37:00;97750.81;;;12.15
40199;BMP280;25906;43.536;26.068;2023-03-07T04:39:45;97756.25;;;12.15
40199;BMP280;25906;43.536;26.068;2023-03-07T04:42:31;97753.69;;;11.92
40199;BMP280;25906;43.536;26.068;2023-03-07T04:45:16;97754.38;;;11.92
40199;BMP280;25906;43.536;26.068;2023-03-07T04:48:02;97750.00;;;11.49
40199;BMP280;25906;43.536;26.068;2023-03-07T04:50:51;97747.03;;;11.82
40199;BMP280;25906;43.536;26.068;2023-03-07T04:53:36;97758.84;;;11.99
40199;BMP280;25906;43.536;26.068;2023-03-07T04:56:21;97758.06;;;11.86
40199;BMP280;25906;43.536;26.068;2023-03-07T04:59:07;97763.03;;;11.53
40199;BMP280;25906;43.536;26.068;2023-03-07T05:01:52;97763.53;;;11.99
40199;BMP280;25906;43.536;26.068;2023-03-07T05:04:37;97758.50;;;11.69
40199;BMP280;25906;43.536;26.068;2023-03-07T05:07:23;97765.56;;;11.49
40199;BMP280;25906;43.536;26.068;2023-03-07T05:10:09;97759.00;;;11.29
40199;BMP280;25906;43.536;26.068;2023-03-07T05:12:55;97760.50;;;11.43
40199;BMP280;25906;43.536;26.068;2023-03-07T05:15:40;97765.66;;;11.51
40199;BMP280;25906;43.536;26.068;2023-03-07T05:18:26;97767.47;;;11.46
40199;BMP280;25906;43.536;26.068;2023-03-07T05:21:12;97774.06;;;11.93
40199;BMP280;25906;43.536;26.068;2023-03-07T05:23:57;97768.84;;;11.47
40199;BMP280;25906;43.536;26.068;2023-03-07T05:26:43;97764.25;;;11.75
40199;BMP280;25906;43.536;26.068;2023-03-07T05:29:28;97767.00;;;11.39
40199;BMP280;25906;43.536;26.068;2023-03-07T05:32:14;97768.09;;;11.83
40199;BMP280;25906;43.536;26.068;2023-03-07T05:34:59;97779.78;;;12.24
40199;BMP280;25906;43.536;26.068;2023-03-07T05:37:45;97776.28;;;11.96
40199;BMP280;25906;43.536;26.068;2023-03-07T05:40:30;97780.38;;;12.22
40199;BMP280;25906;43.536;26.068;2023-03-07T05:43:16;97788.47;;;12.60
40199;BMP280;25906;43.536;26.068;2023-03-07T05:46:01;97781.75;;;12.61
40199;BMP280;25906;43.536;26.068;2023-03-07T05:48:46;97790.94;;;12.30
40199;BMP280;25906;43.536;26.068;2023-03-07T05:51:32;97796.22;;;12.79
40199;BMP280;25906;43.536;26.068;2023-03-07T05:54:17;97791.78;;;13.12
40199;BMP280;25906;43.536;26.068;2023-03-07T05:57:03;97791.44;;;13.33
40199;BMP280;25906;43.536;26.068;2023-03-07T05:59:48;97803.47;;;13.43
40199;BMP280;25906;43.536;26.068;2023-03-07T06:02:33;97806.44;;;13.63
40199;BMP280;25906;43.536;26.068;2023-03-07T06:05:19;97812.19;;;13.84
40199;BMP280;25906;43.536;26.068;2023-03-07T06:08:04;97812.63;;;14.07
40199;BMP280;25906;43.536;26.068;2023-03-07T06:10:52;97820.38;;;14.28
40199;BMP280;25906;43.536;26.068;2023-03-07T06:13:37;97819.47;;;14.39
40199;BMP280;25906;43.536;26.068;2023-03-07T06:16:23;97817.47;;;14.39
40199;BMP280;25906;43.536;26.068;2023-03-07T06:19:08;97816.22;;;14.27
40199;BMP280;25906;43.536;26.068;2023-03-07T06:21:53;97816.75;;;14.39
40199;BMP280;25906;43.536;26.068;2023-03-07T06:24:39;97817.00;;;14.14
40199;BMP280;25906;43.536;26.068;2023-03-07T06:27:24;97824.41;;;14.42
40199;BMP280;25906;43.536;26.068;2023-03-07T06:30:11;97819.88;;;14.64
40199;BMP280;25906;43.536;26.068;2023-03-07T06:32:56;97827.38;;;14.33
40199;BMP280;25906;43.536;26.068;2023-03-07T06:35:43;97827.13;;;14.73
40199;BMP280;25906;43.536;26.068;2023-03-07T06:38:28;97826.78;;;14.98
40199;BMP280;25906;43.536;26.068;2023-03-07T06:41:14;97828.97;;;15.01
40199;BMP280;25906;43.536;26.068;2023-03-07T06:43:59;97829.69;;;15.02
40199;BMP280;25906;43.536;26.068;2023-03-07T06:46:45;97837.16;;;15.01
40199;BMP280;25906;43.536;26.068;2023-03-07T06:49:30;97845.13;;;15.12
40199;BMP280;25906;43.536;26.068;2023-03-07T06:52:16;97840.88;;;14.92
40199;BMP280;25906;43.536;26.068;2023-03-07T06:55:01;97838.19;;;15.09
40199;BMP280;25906;43.536;26.068;2023-03-07T06:57:47;97840.81;;;15.23
40199;BMP280;25906;43.536;26.068;2023-03-07T07:00:33;97845.34;;;15.34
40199;BMP280;25906;43.536;26.068;2023-03-07T07:03:18;97841.34;;;15.37
40199;BMP280;25906;43.536;26.068;2023-03-07T07:06:04;97842.69;;;15.36
40199;BMP280;25906;43.536;26.068;2023-03-07T07:08:53;97849.66;;;16.27
40199;BMP280;25906;43.536;26.068;2023-03-07T07:11:39;97840.19;;;15.42
40199;BMP280;25906;43.536;26.068;2023-03-07T07:14:25;97847.50;;;16.24
40199;BMP280;25906;43.536;26.068;2023-03-07T07:17:10;97851.75;;;16.48
40199;BMP280;25906;43.536;26.068;2023-03-07T07:19:55;97853.25;;;16.89
40199;BMP280;25906;43.536;26.068;2023-03-07T07:22:41;97858.94;;;17.17
40199;BMP280;25906;43.536;26.068;2023-03-07T07:25:26;97845.59;;;17.48
40199;BMP280;25906;43.536;26.068;2023-03-07T07:28:12;97839.53;;;17.51
40199;BMP280;25906;43.536;26.068;2023-03-07T07:30:58;97835.38;;;16.48
40199;BMP280;25906;43.536;26.068;2023-03-07T07:33:43;97851.03;;;17.24
40199;BMP280;25906;43.536;26.068;2023-03-07T07:36:30;97844.13;;;17.89
40199;BMP280;25906;43.536;26.068;2023-03-07T07:39:16;97845.28;;;18.05
40199;BMP280;25906;43.536;26.068;2023-03-07T07:42:02;97841.34;;;18.10
40199;BMP280;25906;43.536;26.068;2023-03-07T07:44:47;97842.56;;;18.54
40199;BMP280;25906;43.536;26.068;2023-03-07T07:47:33;97850.50;;;18.94
40199;BMP280;25906;43.536;26.068;2023-03-07T07:50:19;97847.94;;;18.50
40199;BMP280;25906;43.536;26.068;2023-03-07T07:53:05;97858.03;;;18.94
40199;BMP280;25906;43.536;26.068;2023-03-07T07:55:50;97854.78;;;19.01
40199;BMP280;25906;43.536;26.068;2023-03-07T07:58:36;97860.88;;;18.98
40199;BMP280;25906;43.536;26.068;2023-03-07T08:01:22;97853.06;;;18.88
40199;BMP280;25906;43.536;26.068;2023-03-07T08:04:08;97866.16;;;19.17
40199;BMP280;25906;43.536;26.068;2023-03-07T08:06:54;97859.91;;;19.42
40199;BMP280;25906;43.536;26.068;2023-03-07T08:09:39;97866.66;;;19.10
40199;BMP280;25906;43.536;26.068;2023-03-07T08:12:24;97860.81;;;19.52
40199;BMP280;25906;43.536;26.068;2023-03-07T08:15:10;97859.44;;;19.84
40199;BMP280;25906;43.536;26.068;2023-03-07T08:17:57;97858.09;;;20.16
40199;BMP280;25906;43.536;26.068;2023-03-07T08:20:42;97858.50;;;20.38
40199;BMP280;25906;43.536;26.068;2023-03-07T08:23:28;97857.44;;;20.53
40199;BMP280;25906;43.536;26.068;2023-03-07T08:26:13;97851.00;;;19.74
40199;BMP280;25906;43.536;26.068;2023-03-07T08:28:58;97854.91;;;20.28
40199;BMP280;25906;43.536;26.068;2023-03-07T08:31:44;97857.00;;;21.07
40199;BMP280;25906;43.536;26.068;2023-03-07T08:34:35;97859.19;;;20.74
40199;BMP280;25906;43.536;26.068;2023-03-07T08:37:20;97858.16;;;20.55
40199;BMP280;25906;43.536;26.068;2023-03-07T08:40:06;97855.78;;;20.40
40199;BMP280;25906;43.536;26.068;2023-03-07T08:42:51;97858.31;;;20.63
40199;BMP280;25906;43.536;26.068;2023-03-07T08:45:39;97850.84;;;20.70
40199;BMP280;25906;43.536;26.068;2023-03-07T08:48:25;97852.69;;;20.96
40199;BMP280;25906;43.536;26.068;2023-03-07T08:51:13;97851.44;;;21.03
40199;BMP280;25906;43.536;26.068;2023-03-07T08:53:59;97845.41;;;20.72
40199;BMP280;25906;43.536;26.068;2023-03-07T08:56:45;97851.59;;;21.11
40199;BMP280;25906;43.536;26.068;2023-03-07T08:59:30;97840.44;;;21.03
40199;BMP280;25906;43.536;26.068;2023-03-07T09:02:16;97849.13;;;21.31
40199;BMP280;25906;43.536;26.068;2023-03-07T09:05:01;97848.88;;;21.62
40199;BMP280;25906;43.536;26.068;2023-03-07T09:07:46;97841.91;;;21.55
40199;BMP280;25906;43.536;26.068;2023-03-07T09:10:33;97848.94;;;21.64
40199;BMP280;25906;43.536;26.068;2023-03-07T09:13:18;97835.06;;;21.13
40199;BMP280;25906;43.536;26.068;2023-03-07T09:16:05;97836.66;;;22.34
40199;BMP280;25906;43.536;26.068;2023-03-07T09:18:50;97830.03;;;21.94
40199;BMP280;25906;43.536;26.068;2023-03-07T09:21:35;97834.16;;;21.44
40199;BMP280;25906;43.536;26.068;2023-03-07T09:24:21;97837.22;;;22.18
40199;BMP280;25906;43.536;26.068;2023-03-07T09:27:06;97827.72;;;22.37
40199;BMP280;25906;43.536;26.068;2023-03-07T09:29:52;97833.59;;;22.71
40199;BMP280;25906;43.536;26.068;2023-03-07T09:32:37;97835.25;;;22.31
40199;BMP280;25906;43.536;26.068;2023-03-07T09:35:23;97834.84;;;22.58
40199;BMP280;25906;43.536;26.068;2023-03-07T09:38:08;97826.63;;;22.62
40199;BMP280;25906;43.536;26.068;2023-03-07T09:41:00;97835.44;;;22.44
40199;BMP280;25906;43.536;26.068;2023-03-07T09:49:51;97830.66;;;22.51
40199;BMP280;25906;43.536;26.068;2023-03-07T09:52:39;97820.53;;;22.77
40199;BMP280;25906;43.536;26.068;2023-03-07T09:55:26;97826.56;;;22.58
40199;BMP280;25906;43.536;26.068;2023-03-07T09:58:19;97814.25;;;22.69
40199;BMP280;25906;43.536;26.068;2023-03-07T10:01:06;97821.63;;;22.46
40199;BMP280;25906;43.536;26.068;2023-03-07T10:04:06;97823.66;;;22.44
40199;BMP280;25906;43.536;26.068;2023-03-07T10:06:58;97823.16;;;22.59
40199;BMP280;25906;43.536;26.068;2023-03-07T10:09:48;97806.94;;;23.05
40199;BMP280;25906;43.536;26.068;2023-03-07T10:12:55;97811.97;;;22.45
40199;BMP280;25906;43.536;26.068;2023-03-07T10:15:55;97799.50;;;23.25
40199;BMP280;25906;43.536;26.068;2023-03-07T10:22:29;97813.38;;;23.39
40199;BMP280;25906;43.536;26.068;2023-03-07T10:28:36;97799.69;;;22.58
40199;BMP280;25906;43.536;26.068;2023-03-07T10:31:28;97801.50;;;22.32
40199;BMP280;25906;43.536;26.068;2023-03-07T10:34:28;97797.34;;;22.31
40199;BMP280;25906;43.536;26.068;2023-03-07T10:37:33;97800.03;;;23.02
40199;BMP280;25906;43.536;26.068;2023-03-07T10:40:30;97792.88;;;22.69
40199;BMP280;25906;43.536;26.068;2023-03-07T10:43:36;97781.00;;;21.86
40199;BMP280;25906;43.536;26.068;2023-03-07T10:46:26;97793.50;;;22.62
40199;BMP280;25906;43.536;26.068;2023-03-07T10:49:17;97787.69;;;23.20
40199;BMP280;25906;43.536;26.068;2023-03-07T10:52:51;97779.47;;;22.38
40199;BMP280;25906;43.536;26.068;2023-03-07T10:55:41;97777.84;;;22.92
40199;BMP280;25906;43.536;26.068;2023-03-07T10:58:27;97775.78;;;22.90
40199;BMP280;25906;43.536;26.068;2023-03-07T11:01:18;97783.75;;;23.53
40199;BMP280;25906;43.536;26.068;2023-03-07T11:04:21;97778.06;;;23.23
40199;BMP280;25906;43.536;26.068;2023-03-07T11:07:24;97767.94;;;23.73
40199;BMP280;25906;43.536;26.068;2023-03-07T11:10:37;97759.63;;;23.67
40199;BMP280;25906;43.536;26.068;2023-03-07T11:13:23;97767.94;;;23.77
40199;BMP280;25906;43.536;26.068;2023-03-07T11:16:18;97749.69;;;23.13
40199;BMP280;25906;43.536;26.068;2023-03-07T11:19:23;97752.78;;;23.90
40199;BMP280;25906;43.536;26.068;2023-03-07T11:25:24;97756.13;;;23.61
40199;BMP280;25906;43.536;26.068;2023-03-07T11:28:40;97754.91;;;24.37
40199;BMP280;25906;43.536;26.068;2023-03-07T11:31:38;97745.06;;;23.51
40199;BMP280;25906;43.536;26.068;2023-03-07T11:34:35;97739.69;;;24.58
40199;BMP280;25906;43.536;26.068;2023-03-07T11:37:53;97737.56;;;23.99
40199;BMP280;25906;43.536;26.068;2023-03-07T11:50:25;97717.97;;;22.24
40199;BMP280;25906;43.536;26.068;2023-03-07T11:56:40;97712.69;;;23.97
40199;BMP280;25906;43.536;26.068;2023-03-07T11:59:56;97708.50;;;24.83
40199;BMP280;25906;43.536;26.068;2023-03-07T12:06:18;97703.72;;;24.52
40199;BMP280;25906;43.536;26.068;2023-03-07T12:12:27;97704.22;;;25.13
40199;BMP280;25906;43.536;26.068;2023-03-07T12:15:58;97705.44;;;25.54
40199;BMP280;25906;43.536;26.068;2023-03-07T12:31:29;97677.38;;;24.68
40199;BMP280;25906;43.536;26.068;2023-03-07T12:35:14;97678.53;;;26.30
40199;BMP280;25906;43.536;26.068;2023-03-07T12:38:41;97688.06;;;27.10
40199;BMP280;25906;43.536;26.068;2023-03-07T12:41:18;97685.16;;;26.62
40199;BMP280;25906;43.536;26.068;2023-03-07T12:44:12;97685.88;;;25.79
40199;BMP280;25906;43.536;26.068;2023-03-07T12:47:07;97679.47;;;26.05
40199;BMP280;25906;43.536;26.068;2023-03-07T12:56:20;97670.22;;;23.04
40199;BMP280;25906;43.536;26.068;2023-03-07T12:59:14;97671.91;;;24.07
40199;BMP280;25906;43.536;26.068;2023-03-07T13:02:04;97673.75;;;25.17
40199;BMP280;25906;43.536;26.068;2023-03-07T13:04:53;97653.66;;;23.00
40199;BMP280;25906;43.536;26.068;2023-03-07T13:07:40;97664.00;;;22.97
40199;BMP280;25906;43.536;26.068;2023-03-07T13:10:26;97659.84;;;25.25
40199;BMP280;25906;43.536;26.068;2023-03-07T13:16:35;97665.50;;;25.05
40199;BMP280;25906;43.536;26.068;2023-03-07T13:28:37;97666.88;;;26.13
40199;BMP280;25906;43.536;26.068;2023-03-07T13:31:25;97670.84;;;26.36
40199;BMP280;25906;43.536;26.068;2023-03-07T13:34:43;97674.44;;;25.20
40199;BMP280;25906;43.536;26.068;2023-03-07T13:46:29;97664.69;;;26.26
40199;BMP280;25906;43.536;26.068;2023-03-07T13:49:38;97657.88;;;26.80
40199;BMP280;25906;43.536;26.068;2023-03-07T13:52:34;97653.31;;;26.51
40199;BMP280;25906;43.536;26.068;2023-03-07T13:55:22;97658.69;;;23.52
40199;BMP280;25906;43.536;26.068;2023-03-07T13:58:18;97657.19;;;25.05
40199;BMP280;25906;43.536;26.068;2023-03-07T14:01:13;97650.22;;;26.13
40199;BMP280;25906;43.536;26.068;2023-03-07T14:04:03;97656.38;;;25.29
40199;BMP280;25906;43.536;26.068;2023-03-07T14:07:01;97646.47;;;25.65
40199;BMP280;25906;43.536;26.068;2023-03-07T14:09:54;97652.31;;;26.80
40199;BMP280;25906;43.536;26.068;2023-03-07T14:16:12;97656.59;;;26.00
40199;BMP280;25906;43.536;26.068;2023-03-07T14:19:26;97655.44;;;26.49
40199;BMP280;25906;43.536;26.068;2023-03-07T14:25:16;97658.56;;;25.02
40199;BMP280;25906;43.536;26.068;2023-03-07T14:28:16;97660.72;;;24.90
40199;BMP280;25906;43.536;26.068;2023-03-07T14:31:03;97659.97;;;25.03
40199;BMP280;25906;43.536;26.068;2023-03-07T14:33:52;97656.63;;;24.65
40199;BMP280;25906;43.536;26.068;2023-03-07T14:36:38;97655.22;;;23.44
40199;BMP280;25906;43.536;26.068;2023-03-07T14:39:52;97642.16;;;22.29
40199;BMP280;25906;43.536;26.068;2023-03-07T14:51:18;97650.00;;;22.62
40199;BMP280;25906;43.536;26.068;2023-03-07T14:54:10;97659.94;;;23.16
40199;BMP280;25906;43.536;26.068;2023-03-07T14:56:59;97650.31;;;23.27
40199;BMP280;25906;43.536;26.068;2023-03-07T15:03:16;97655.88;;;23.35
40199;BMP280;25906;43.536;26.068;2023-03-07T15:06:02;97648.63;;;22.67
40199;BMP280;25906;43.536;26.068;2023-03-07T15:08:48;97644.69;;;23.03
40199;BMP280;25906;43.536;26.068;2023-03-07T15:11:47;97653.31;;;22.46
40199;BMP280;25906;43.536;26.068;2023-03-07T15:20:10;97643.25;;;21.94
40199;BMP280;25906;43.536;26.068;2023-03-07T15:23:06;97646.91;;;22.16
40199;BMP280;25906;43.536;26.068;2023-03-07T15:26:02;97640.41;;;21.84
40199;BMP280;25906;43.536;26.068;2023-03-07T15:28:49;97641.69;;;22.60
40199;BMP280;25906;43.536;26.068;2023-03-07T15:31:54;97640.13;;;22.31
40199;BMP280;25906;43.536;26.068;2023-03-07T15:34:41;97635.03;;;22.00
40199;BMP280;25906;43.536;26.068;2023-03-07T15:37:28;97640.75;;;21.49
40199;BMP280;25906;43.536;26.068;2023-03-07T15:46:16;97642.59;;;21.98
40199;BMP280;25906;43.536;26.068;2023-03-07T15:49:03;97644.59;;;21.89
40199;BMP280;25906;43.536;26.068;2023-03-07T15:51:51;97644.66;;;21.95
40199;BMP280;25906;43.536;26.068;2023-03-07T15:54:40;97649.78;;;21.58
40199;BMP280;25906;43.536;26.068;2023-03-07T15:57:30;97642.25;;;21.03
40199;BMP280;25906;43.536;26.068;2023-03-07T16:00:32;97647.88;;;21.13
40199;BMP280;25906;43.536;26.068;2023-03-07T16:03:28;97653.84;;;20.96
40199;BMP280;25906;43.536;26.068;2023-03-07T16:06:40;97650.19;;;20.80
40199;BMP280;25906;43.536;26.068;2023-03-07T16:09:26;97650.72;;;20.68
40199;BMP280;25906;43.536;26.068;2023-03-07T16:12:13;97660.06;;;20.08
40199;BMP280;25906;43.536;26.068;2023-03-07T16:15:00;97669.50;;;19.98
40199;BMP280;25906;43.536;26.068;2023-03-07T16:17:48;97662.84;;;19.40
40199;BMP280;25906;43.536;26.068;2023-03-07T16:20:37;97671.69;;;20.07
40199;BMP280;25906;43.536;26.068;2023-03-07T16:28:56;97665.59;;;16.79
40199;BMP280;25906;43.536;26.068;2023-03-07T16:31:44;97667.81;;;17.05
40199;BMP280;25906;43.536;26.068;2023-03-07T16:34:29;97674.09;;;17.56
40199;BMP280;25906;43.536;26.068;2023-03-07T16:37:15;97676.50;;;17.21
40199;BMP280;25906;43.536;26.068;2023-03-07T16:40:00;97676.66;;;17.50
40199;BMP280;25906;43.536;26.068;2023-03-07T16:42:47;97696.00;;;18.05
40199;BMP280;25906;43.536;26.068;2023-03-07T16:45:34;97693.91;;;18.30
40199;BMP280;25906;43.536;26.068;2023-03-07T16:48:19;97702.06;;;18.83
40199;BMP280;25906;43.536;26.068;2023-03-07T16:51:05;97699.94;;;18.79
40199;BMP280;25906;43.536;26.068;2023-03-07T16:53:50;97703.03;;;19.26
40199;BMP280;25906;43.536;26.068;2023-03-07T16:56:44;97712.34;;;19.42
40199;BMP280;25906;43.536;26.068;2023-03-07T16:59:36;97711.72;;;19.46
40199;BMP280;25906;43.536;26.068;2023-03-07T17:02:23;97713.09;;;18.85
40199;BMP280;25906;43.536;26.068;2023-03-07T17:05:15;97712.63;;;18.94
40199;BMP280;25906;43.536;26.068;2023-03-07T17:08:00;97712.28;;;19.09
40199;BMP280;25906;43.536;26.068;2023-03-07T17:10:46;97716.66;;;19.20
40199;BMP280;25906;43.536;26.068;2023-03-07T17:13:31;97717.22;;;19.46
40199;BMP280;25906;43.536;26.068;2023-03-07T17:16:17;97714.72;;;19.58
40199;BMP280;25906;43.536;26.068;2023-03-07T17:19:03;97713.72;;;18.54
40199;BMP280;25906;43.536;26.068;2023-03-07T17:21:49;97714.16;;;18.45
40199;BMP280;25906;43.536;26.068;2023-03-07T17:24:34;97712.81;;;18.46
40199;BMP280;25906;43.536;26.068;2023-03-07T17:27:19;97716.31;;;18.77
40199;BMP280;25906;43.536;26.068;2023-03-07T17:30:05;97718.16;;;18.67
40199;BMP280;25906;43.536;26.068;2023-03-07T17:32:51;97716.84;;;18.70
40199;BMP280;25906;43.536;26.068;2023-03-07T17:35:36;97718.47;;;18.26
40199;BMP280;25906;43.536;26.068;2023-03-07T17:38:21;97715.00;;;19.07
40199;BMP280;25906;43.536;26.068;2023-03-07T17:41:07;97715.94;;;18.34
40199;BMP280;25906;43.536;26.068;2023-03-07T17:43:52;97723.81;;;18.75
40199;BMP280;25906;43.536;26.068;2023-03-07T17:46:38;97727.28;;;18.77
40199;BMP280;25906;43.536;26.068;2023-03-07T17:49:23;97728.25;;;18.88
40199;BMP280;25906;43.536;26.068;2023-03-07T17:52:10;97726.34;;;19.56
40199;BMP280;25906;43.536;26.068;2023-03-07T17:54:59;97739.00;;;19.69
40199;BMP280;25906;43.536;26.068;2023-03-07T17:57:44;97734.09;;;19.66
40199;BMP280;25906;43.536;26.068;2023-03-07T18:00:30;97742.91;;;19.60